createdAt,value
2022-10-22T03:01:13.825Z,13.00
2022-10-22T03:03:43.302Z,13.00
2022-10-22T03:06:10.515Z,12.90
2022-10-22T03:08:37.710Z,12.70
2022-10-22T03:11:04.868Z,12.70
2022-10-22T03:13:32.019Z,12.80
2022-10-22T03:15:59.219Z,12.80
2022-10-22T03:18:26.330Z,12.80
2022-10-22T03:21:13.441Z,12.70
2022-10-22T03:23:43.590Z,12.70
2022-10-22T03:26:13.210Z,12.80
2022-10-22T03:28:41.724Z,12.90
2022-10-22T03:31:08.911Z,13.10
2022-10-22T03:33:36.039Z,13.10
2022-10-22T03:36:03.469Z,13.20
2022-10-22T03:38:31.020Z,13.20
2022-10-22T03:40:58.542Z,13.10
2022-10-22T03:43:25.787Z,13.20
2022-10-22T03:45:52.892Z,13.20
2022-10-22T03:48:20.336Z,13.20
2022-10-22T03:50:47.443Z,13.20
2022-10-22T03:53:15.020Z,13.30
2022-10-22T03:55:42.354Z,13.40
2022-10-22T03:58:09.838Z,13.40
2022-10-22T04:00:37.245Z,13.40
2022-10-22T04:03:04.802Z,13.20
2022-10-22T04:05:33.817Z,13.20
2022-10-22T04:08:01.112Z,13.10
2022-10-22T04:10:28.300Z,13.20
2022-10-22T04:12:55.454Z,13.00
2022-10-22T04:15:22.643Z,13.00
2022-10-22T04:17:49.730Z,13.00
2022-10-22T04:20:16.983Z,13.00
2022-10-22T04:22:44.152Z,13.10
2022-10-22T04:25:11.342Z,13.10
2022-10-22T04:27:38.737Z,13.10
2022-10-22T04:30:06.838Z,13.10
2022-10-22T04:32:33.969Z,13.20
2022-10-22T04:35:01.129Z,13.20
2022-10-22T04:37:28.311Z,13.20
2022-10-22T04:39:58.044Z,13.10
2022-10-22T04:42:25.563Z,13.10
2022-10-22T04:44:52.674Z,13.10
2022-10-22T04:47:19.827Z,13.10
2022-10-22T04:49:47.042Z,13.10
2022-10-22T04:52:14.219Z,13.20
2022-10-22T04:54:41.397Z,13.20
2022-10-22T04:57:08.487Z,13.20
2022-10-22T04:59:35.596Z,13.20
2022-10-22T05:02:02.778Z,13.20
2022-10-22T05:04:29.952Z,13.30
2022-10-22T05:06:57.145Z,13.30
2022-10-22T05:09:24.267Z,13.30
2022-10-22T05:11:52.834Z,13.20
2022-10-22T05:14:22.892Z,13.10
2022-10-22T05:16:50.807Z,13.20
2022-10-22T05:19:26.741Z,13.10
2022-10-22T05:21:56.516Z,13.20
2022-10-22T05:24:24.192Z,13.20
2022-10-22T05:26:56.709Z,13.20
2022-10-22T05:29:24.615Z,13.30
2022-10-22T05:31:52.338Z,13.40
2022-10-22T05:34:19.881Z,13.40
2022-10-22T05:36:47.027Z,13.40
2022-10-22T05:39:14.210Z,13.40
2022-10-22T05:41:41.514Z,13.30
2022-10-22T05:44:11.956Z,13.30
2022-10-22T05:46:39.522Z,13.20
2022-10-22T05:49:07.421Z,13.10
2022-10-22T05:51:37.244Z,13.10
2022-10-22T05:54:07.579Z,13.10
2022-10-22T05:56:36.729Z,13.10
2022-10-22T05:59:04.598Z,12.90
2022-10-22T06:01:35.209Z,12.90
2022-10-22T06:04:04.942Z,12.90
2022-10-22T06:06:37.076Z,12.90
2022-10-22T06:09:07.884Z,12.90
2022-10-22T06:11:35.475Z,12.80
2022-10-22T06:14:03.671Z,12.90
2022-10-22T06:16:31.613Z,12.90
2022-10-22T06:19:02.114Z,12.90
2022-10-22T06:21:30.515Z,13.00
2022-10-22T06:23:59.089Z,13.10
2022-10-22T06:26:26.828Z,13.10
2022-10-22T06:28:56.037Z,13.10
2022-10-22T06:33:50.993Z,13.20
2022-10-22T06:36:23.514Z,13.30
2022-10-22T06:38:55.002Z,13.20
2022-10-22T06:41:25.751Z,13.10
2022-10-22T06:43:57.521Z,13.30
2022-10-22T06:46:25.653Z,13.40
2022-10-22T06:49:01.316Z,13.40
2022-10-22T06:51:29.041Z,13.40
2022-10-22T06:53:57.929Z,13.50
2022-10-22T06:56:27.557Z,13.50
2022-10-22T06:58:56.694Z,13.50
2022-10-22T07:01:30.792Z,13.60
2022-10-22T07:03:58.469Z,13.70
2022-10-22T07:06:26.686Z,13.70
2022-10-22T07:08:55.533Z,13.90
2022-10-22T07:11:28.021Z,14.00
2022-10-22T07:13:57.087Z,13.80
2022-10-22T07:16:29.501Z,13.80
2022-10-22T07:19:01.010Z,14.00
2022-10-22T07:21:28.836Z,14.00
2022-10-22T07:23:56.534Z,14.00
2022-10-22T07:26:28.190Z,14.00
2022-10-22T07:28:55.315Z,14.00
2022-10-22T07:31:22.808Z,14.00
2022-10-22T07:33:50.264Z,14.00
2022-10-22T07:36:17.970Z,14.00
2022-10-22T07:38:56.130Z,13.90
2022-10-22T07:41:23.866Z,14.10
2022-10-22T07:43:51.537Z,14.10
2022-10-22T07:46:19.449Z,14.10
2022-10-22T07:48:46.908Z,14.20
2022-10-22T07:51:14.492Z,14.20
2022-10-22T07:53:41.661Z,14.20
2022-10-22T07:56:09.484Z,14.30
2022-10-22T07:58:36.764Z,14.40
2022-10-22T08:01:07.041Z,14.50
2022-10-22T08:03:35.001Z,14.50
2022-10-22T08:06:03.058Z,14.60
2022-10-22T08:08:30.960Z,14.70
2022-10-22T08:11:00.700Z,14.70
2022-10-22T08:13:30.531Z,15.00
2022-10-22T08:16:01.030Z,14.90
2022-10-22T08:18:29.307Z,15.10
2022-10-22T08:20:56.597Z,15.20
2022-10-22T08:23:27.573Z,15.30
2022-10-22T08:25:57.197Z,15.40
2022-10-22T08:28:24.715Z,15.50
2022-10-22T08:30:52.051Z,15.50
2022-10-22T08:33:19.321Z,15.40
2022-10-22T08:35:51.389Z,15.40
2022-10-22T08:38:19.308Z,15.40
2022-10-22T08:40:54.067Z,15.40
2022-10-22T08:43:29.811Z,15.50
2022-10-22T08:46:30.834Z,15.70
2022-10-22T08:49:01.674Z,15.70
2022-10-22T08:51:33.984Z,15.90
2022-10-22T08:54:28.760Z,16.00
2022-10-22T08:57:01.474Z,16.00
2022-10-22T08:59:47.546Z,16.10
2022-10-22T09:02:39.679Z,16.10
2022-10-22T09:05:40.746Z,16.00
2022-10-22T09:08:12.694Z,16.00
2022-10-22T09:10:47.530Z,16.00
2022-10-22T09:13:20.092Z,16.00
2022-10-22T09:15:55.304Z,16.30
2022-10-22T09:19:03.544Z,16.40
2022-10-22T09:21:33.357Z,16.50
2022-10-22T09:24:09.879Z,16.50
2022-10-22T09:26:39.841Z,16.60
2022-10-22T09:29:13.395Z,16.80
2022-10-22T09:31:40.708Z,17.00
2022-10-22T09:34:07.981Z,17.20
2022-10-22T09:36:37.744Z,17.10
2022-10-22T09:39:04.983Z,17.10
2022-10-22T09:41:32.181Z,17.40
2022-10-22T09:43:59.511Z,17.50
2022-10-22T09:46:39.709Z,17.70
2022-10-22T09:49:12.160Z,17.80
2022-10-22T09:51:39.260Z,17.60
2022-10-22T09:54:30.156Z,17.50
2022-10-22T09:57:04.345Z,17.40
2022-10-22T09:59:36.727Z,17.50
2022-10-22T10:02:38.380Z,17.70
2022-10-22T10:05:07.181Z,17.70
2022-10-22T10:07:36.407Z,17.60
2022-10-22T10:10:16.124Z,17.70
2022-10-22T10:12:54.891Z,17.80
2022-10-22T10:15:45.975Z,17.60
2022-10-22T10:18:24.838Z,17.60
2022-10-22T10:23:53.191Z,17.60
2022-10-22T10:26:28.408Z,17.60
2022-10-22T10:29:05.541Z,17.60
2022-10-22T10:31:57.468Z,17.60
2022-10-22T10:34:43.838Z,17.60
2022-10-22T10:37:17.526Z,17.60
2022-10-22T10:40:09.128Z,17.60
2022-10-22T10:43:00.234Z,17.60
2022-10-22T10:45:38.807Z,17.70
2022-10-22T10:48:14.633Z,17.70
2022-10-22T10:51:04.401Z,17.50
2022-10-22T10:53:40.079Z,17.50
2022-10-22T10:56:27.499Z,17.70
2022-10-22T10:59:29.972Z,17.60
2022-10-22T11:02:33.676Z,17.60
2022-10-22T11:05:11.056Z,17.80
2022-10-22T11:07:50.819Z,17.90
2022-10-22T11:10:30.952Z,18.10
2022-10-22T11:13:14.219Z,18.20
2022-10-22T11:15:44.711Z,18.40
2022-10-22T11:18:23.770Z,18.80
2022-10-22T11:21:05.230Z,18.90
2022-10-22T11:24:24.418Z,19.10
2022-10-22T11:27:04.396Z,19.00
2022-10-22T11:29:39.228Z,18.80
2022-10-22T11:32:12.732Z,18.70
2022-10-22T11:34:50.297Z,18.70
2022-10-22T11:37:18.589Z,18.70
2022-10-22T11:39:53.521Z,18.60
2022-10-22T11:42:34.627Z,18.60
2022-10-22T11:45:28.577Z,18.60
2022-10-22T11:48:06.936Z,18.60
2022-10-22T11:51:27.666Z,18.60
2022-10-22T11:54:01.212Z,18.60
2022-10-22T11:56:37.471Z,18.40
2022-10-22T11:59:28.839Z,18.30
2022-10-22T12:01:56.582Z,18.50
2022-10-22T12:04:41.216Z,18.50
2022-10-22T12:07:51.635Z,18.60
2022-10-22T12:10:21.703Z,18.80
2022-10-22T12:13:10.820Z,18.90
2022-10-22T12:15:48.164Z,19.00
2022-10-22T12:18:16.802Z,18.90
2022-10-22T12:20:44.457Z,19.00
2022-10-22T12:23:13.384Z,19.10
2022-10-22T12:25:40.514Z,19.10
2022-10-22T12:28:12.338Z,19.10
2022-10-22T12:30:39.504Z,19.10
2022-10-22T12:33:17.935Z,18.90
2022-10-22T12:35:46.672Z,18.90
2022-10-22T12:38:20.320Z,19.00
2022-10-22T12:40:49.243Z,18.90
2022-10-22T12:43:19.193Z,18.70
2022-10-22T12:45:48.464Z,18.70
2022-10-22T12:48:19.884Z,18.60
2022-10-22T12:50:55.459Z,18.60
2022-10-22T12:53:32.822Z,18.30
2022-10-22T12:56:03.833Z,18.20
2022-10-22T12:58:42.124Z,18.00
2022-10-22T13:01:14.367Z,18.00
2022-10-22T13:03:44.839Z,17.90
2022-10-22T13:06:33.774Z,17.80
2022-10-22T13:09:03.992Z,17.90
2022-10-22T13:11:39.857Z,17.90
2022-10-22T13:14:21.412Z,17.90
2022-10-22T13:17:13.428Z,17.90
2022-10-22T13:19:53.121Z,18.10
2022-10-22T13:22:32.679Z,18.10
2022-10-22T13:25:39.509Z,18.10
2022-10-22T13:28:12.596Z,18.20
2022-10-22T13:30:51.999Z,18.10
2022-10-22T13:33:37.562Z,18.20
2022-10-22T13:36:05.279Z,18.00
2022-10-22T13:38:32.449Z,17.90
2022-10-22T13:40:59.840Z,17.90
2022-10-22T13:43:27.001Z,17.90
2022-10-22T13:46:00.014Z,18.00
2022-10-22T13:48:29.590Z,18.00
2022-10-22T13:50:56.816Z,18.00
2022-10-22T13:53:29.151Z,18.00
2022-10-22T13:55:56.409Z,18.00
2022-10-22T13:58:24.853Z,17.80
2022-10-22T14:00:56.926Z,17.70
2022-10-22T14:03:29.050Z,17.70
2022-10-22T14:05:56.283Z,17.80
2022-10-22T14:08:25.874Z,17.80
2022-10-22T14:10:53.937Z,17.80
2022-10-22T14:13:21.695Z,17.80
2022-10-22T14:15:51.518Z,17.80
2022-10-22T14:18:25.570Z,17.80
2022-10-22T14:20:56.005Z,17.80
2022-10-22T14:23:26.711Z,17.80
2022-10-22T14:25:55.212Z,17.80
2022-10-22T14:28:22.330Z,17.80
2022-10-22T14:30:50.278Z,17.80
2022-10-22T14:33:21.142Z,17.90
2022-10-22T14:35:49.010Z,17.80
2022-10-22T14:38:16.702Z,17.80
2022-10-22T14:40:45.323Z,17.80
2022-10-22T14:43:24.371Z,17.90
2022-10-22T14:45:51.695Z,17.80
2022-10-22T14:50:51.614Z,17.80
2022-10-22T14:53:18.807Z,17.80
2022-10-22T14:55:49.095Z,17.70
2022-10-22T14:58:16.381Z,17.60
2022-10-22T15:00:44.141Z,17.70
2022-10-22T15:03:11.926Z,17.60
2022-10-22T15:05:46.366Z,17.60
2022-10-22T15:08:14.969Z,17.50
2022-10-22T15:10:42.216Z,17.50
2022-10-22T15:13:09.521Z,17.50
2022-10-22T15:15:40.028Z,17.50
2022-10-22T15:18:07.697Z,17.50
2022-10-22T15:20:34.912Z,17.40
2022-10-22T15:23:02.525Z,17.30
2022-10-22T15:25:29.871Z,17.30
2022-10-22T15:28:00.728Z,17.20
2022-10-22T15:30:31.845Z,17.20
2022-10-22T15:32:58.976Z,17.10
2022-10-22T15:35:28.609Z,17.10
2022-10-22T15:37:55.737Z,17.00
2022-10-22T15:40:22.844Z,17.00
2022-10-22T15:42:50.068Z,17.00
2022-10-22T15:45:17.322Z,16.90
2022-10-22T15:47:48.395Z,16.80
2022-10-22T15:50:16.348Z,16.70
2022-10-22T15:52:43.495Z,16.60
2022-10-22T15:57:43.739Z,16.40
2022-10-22T16:00:12.798Z,16.40
2022-10-22T16:02:40.025Z,16.30
2022-10-22T16:05:07.720Z,16.20
2022-10-22T16:07:34.823Z,16.10
2022-10-22T16:10:02.026Z,16.00
2022-10-22T16:12:29.189Z,15.80
2022-10-22T16:14:56.378Z,15.70
2022-10-22T16:17:24.413Z,15.60
2022-10-22T16:19:51.576Z,15.50
2022-10-22T16:22:18.706Z,15.50
2022-10-22T16:24:45.834Z,15.40
2022-10-22T16:27:13.034Z,15.40
2022-10-22T16:29:40.496Z,15.40
2022-10-22T16:32:08.144Z,15.30
2022-10-22T16:34:35.320Z,15.00
2022-10-22T16:37:02.608Z,15.00
2022-10-22T16:39:29.746Z,14.80
2022-10-22T16:41:56.872Z,14.80
2022-10-22T16:44:24.031Z,14.70
2022-10-22T16:46:51.211Z,14.70
2022-10-22T16:49:18.341Z,14.60
2022-10-22T16:51:45.535Z,14.60
2022-10-22T16:54:14.172Z,14.50
2022-10-22T16:56:41.338Z,14.50
2022-10-22T16:59:08.707Z,14.30
2022-10-22T17:01:40.683Z,14.30
2022-10-22T17:04:08.781Z,14.20
2022-10-22T17:06:35.955Z,14.20
2022-10-22T17:09:04.342Z,14.10
2022-10-22T17:11:36.219Z,14.00
2022-10-22T17:14:06.173Z,14.00
2022-10-22T17:16:33.329Z,14.00
2022-10-22T17:19:03.769Z,13.90
2022-10-22T17:21:30.992Z,13.60
2022-10-22T17:23:58.579Z,13.50
2022-10-22T17:26:30.411Z,13.50
2022-10-22T17:28:57.846Z,13.50
2022-10-22T17:31:32.560Z,13.40
2022-10-22T17:34:02.694Z,13.40
2022-10-22T17:36:34.812Z,13.40
2022-10-22T17:39:06.088Z,13.30
2022-10-22T17:41:35.321Z,13.10
2022-10-22T17:44:05.075Z,13.00
2022-10-22T17:46:32.748Z,13.00
2022-10-22T17:49:03.152Z,13.00
2022-10-22T17:51:31.269Z,12.90
2022-10-22T17:53:58.859Z,12.90
2022-10-22T17:56:29.329Z,12.80
2022-10-22T17:58:56.746Z,12.70
2022-10-22T18:01:35.498Z,12.50
2022-10-22T18:04:06.214Z,12.50
2022-10-22T18:06:34.548Z,12.40
2022-10-22T18:09:06.598Z,12.50
2022-10-22T18:11:36.419Z,12.50
2022-10-22T18:14:04.805Z,12.50
2022-10-22T18:16:32.024Z,12.40
2022-10-22T18:18:59.139Z,12.40
2022-10-22T18:21:28.407Z,12.30
2022-10-22T18:23:57.370Z,12.40
2022-10-22T18:26:26.866Z,12.30
2022-10-22T18:28:56.238Z,12.30
2022-10-22T18:31:26.056Z,12.30
2022-10-22T18:36:27.520Z,12.20
2022-10-22T18:38:57.379Z,12.10
2022-10-22T18:41:25.077Z,12.10
2022-10-22T18:43:53.888Z,12.10
2022-10-22T18:46:21.876Z,12.00
2022-10-22T18:48:49.042Z,12.10
2022-10-22T18:51:16.262Z,12.00
2022-10-22T18:53:53.712Z,12.10
2022-10-22T18:56:30.652Z,12.10
2022-10-22T18:58:57.869Z,11.90
2022-10-22T19:01:29.291Z,11.80
2022-10-22T19:03:57.352Z,11.80
2022-10-22T19:06:29.983Z,11.80
2022-10-22T19:08:59.969Z,11.80
2022-10-22T19:11:27.565Z,11.70
2022-10-22T19:13:54.706Z,11.60
2022-10-22T19:16:23.895Z,11.70
2022-10-22T19:18:53.026Z,11.60
2022-10-22T19:21:21.695Z,11.40
2022-10-22T19:23:49.444Z,11.40
2022-10-22T19:26:18.559Z,11.40
2022-10-22T19:28:45.670Z,11.40
2022-10-22T19:31:18.413Z,11.40
2022-10-22T19:33:46.232Z,11.50
2022-10-22T19:36:15.149Z,11.50
2022-10-22T19:38:45.146Z,11.50
2022-10-22T19:41:14.421Z,11.50
2022-10-22T19:43:42.883Z,11.50
2022-10-22T19:46:11.018Z,11.50
2022-10-22T19:48:38.644Z,11.50
2022-10-22T19:51:09.320Z,11.50
2022-10-22T19:53:38.705Z,11.40
2022-10-22T19:56:07.658Z,11.40
2022-10-22T19:58:36.039Z,11.40
2022-10-22T20:01:09.440Z,11.50
2022-10-22T20:03:37.638Z,11.50
2022-10-22T20:06:07.116Z,11.40
2022-10-22T20:08:37.797Z,11.30
2022-10-22T20:11:07.111Z,11.20
2022-10-22T20:13:35.628Z,11.30
2022-10-22T20:16:03.310Z,11.30
2022-10-22T20:18:33.958Z,11.40
2022-10-22T20:21:05.554Z,11.40
2022-10-22T20:23:33.175Z,11.40
2022-10-22T20:26:00.692Z,11.40
2022-10-22T20:28:27.947Z,11.40
2022-10-22T20:30:55.093Z,11.50
2022-10-22T20:33:22.632Z,11.50
2022-10-22T20:36:07.526Z,11.50
2022-10-22T20:41:10.889Z,11.40
2022-10-22T20:43:38.140Z,11.20
2022-10-22T20:46:05.937Z,11.20
2022-10-22T20:48:33.700Z,11.20
2022-10-22T20:51:01.617Z,11.20
2022-10-22T20:53:28.923Z,11.20
2022-10-22T20:55:58.922Z,11.10
2022-10-22T20:58:27.490Z,11.10
